Time;durP1;ratioP1;P1;durP2;ratioP2;P2;SDS_P1;SDS_P2;PMS_P1;PMS_P2;Temp;Humidity;BMP_temperature;BMP_pressure;BME280_temperature;BME280_humidity;BME280_pressure;Samples;Min_cycle;Max_cycle;Signal;HPM_P1;HPM_P2
2023/08/09 00:03:07;;;;;;;;;;;20.90;62.70;;;;;;10363322;28;89164;-46
2023/08/09 00:08:09;;;;;;;;;;;20.90;62.70;;;;;;10346570;28;90517;-45
2023/08/09 00:13:12;;;;;;;;;;;20.90;62.70;;;;;;10343388;28;89216;-44
2023/08/09 00:18:14;;;;;;;;;;;20.90;62.60;;;;;;10345015;28;90509;-46
2023/08/09 00:23:16;;;;;;;;;;;20.90;62.50;;;;;;10350876;28;90196;-45
2023/08/09 00:28:18;;;;;;;;;;;20.90;62.50;;;;;;10368616;28;91302;-45
2023/08/09 00:33:20;;;;;;;;;;;20.90;62.40;;;;;;10350947;28;89285;-47
2023/08/09 00:38:22;;;;;;;;;;;20.90;62.30;;;;;;10351053;28;90077;-47
2023/08/09 00:43:24;;;;;;;;;;;20.90;62.30;;;;;;10346750;28;90240;-47
2023/08/09 00:48:27;;;;;;;;;;;20.90;62.20;;;;;;10344533;28;90325;-44
2023/08/09 00:53:29;;;;;;;;;;;20.90;62.10;;;;;;10342059;28;89340;-43
2023/08/09 00:58:31;;;;;;;;;;;20.90;62.10;;;;;;10358783;28;89021;-43
2023/08/09 01:03:32;;;;;;;;;;;20.90;62.00;;;;;;10339362;28;90105;-48
2023/08/09 01:08:40;;;;;;;;;;;20.90;62.10;;;;;;10326759;28;90398;-45
2023/08/09 01:13:43;;;;;;;;;;;20.90;62.00;;;;;;10329129;28;89433;-46
2023/08/09 01:18:45;;;;;;;;;;;20.90;61.90;;;;;;10360038;28;92745;-48
2023/08/09 01:23:48;;;;;;;;;;;20.90;61.90;;;;;;10336592;28;90966;-44
2023/08/09 01:28:51;;;;;;;;;;;20.90;61.90;;;;;;10339231;28;89407;-49
2023/08/09 01:33:53;;;;;;;;;;;20.90;61.90;;;;;;10354164;27;91216;-45
2023/08/09 01:38:57;;;;;;;;;;;20.90;61.90;;;;;;10324245;28;91444;-45
2023/08/09 01:43:59;;;;;;;;;;;20.80;61.80;;;;;;10352406;28;89024;-44
2023/08/09 01:49:08;;;;;;;;;;;20.80;61.80;;;;;;10341081;28;89755;-45
2023/08/09 01:54:11;;;;;;;;;;;20.80;61.80;;;;;;10358063;28;89471;-43
2023/08/09 01:59:14;;;;;;;;;;;20.80;61.80;;;;;;10317093;28;89346;-48
2023/08/09 02:04:16;;;;;;;;;;;20.80;61.80;;;;;;10313961;28;90028;-46
2023/08/09 02:09:18;;;;;;;;;;;20.80;61.80;;;;;;10328431;28;91105;-46
2023/08/09 02:14:21;;;;;;;;;;;20.80;61.70;;;;;;10364017;28;89611;-43
2023/08/09 02:19:24;;;;;;;;;;;20.70;61.70;;;;;;10339141;28;90417;-45
2023/08/09 02:24:26;;;;;;;;;;;20.80;61.70;;;;;;10333097;28;90393;-45
2023/08/09 02:29:30;;;;;;;;;;;20.70;61.60;;;;;;10334907;28;89048;-45
2023/08/09 02:34:32;;;;;;;;;;;20.70;61.60;;;;;;10351840;28;89851;-46
2023/08/09 02:39:35;;;;;;;;;;;20.70;61.70;;;;;;10339870;28;88816;-42
2023/08/09 02:44:36;;;;;;;;;;;20.70;61.60;;;;;;10323567;28;88896;-44
2023/08/09 02:49:38;;;;;;;;;;;20.70;61.60;;;;;;10339612;28;91111;-47
2023/08/09 02:54:40;;;;;;;;;;;20.60;61.60;;;;;;10335786;28;90669;-44
2023/08/09 02:59:46;;;;;;;;;;;20.70;61.60;;;;;;10327687;28;91333;-44
2023/08/09 03:04:48;;;;;;;;;;;20.70;61.70;;;;;;10320332;28;89130;-44
2023/08/09 03:09:50;;;;;;;;;;;20.70;61.60;;;;;;10331145;28;89386;-46
2023/08/09 03:14:52;;;;;;;;;;;20.60;61.50;;;;;;10336190;28;89417;-47
2023/08/09 03:19:55;;;;;;;;;;;20.60;61.50;;;;;;10342785;28;88913;-46
2023/08/09 03:24:57;;;;;;;;;;;20.60;61.50;;;;;;10351694;28;90855;-46
2023/08/09 03:30:00;;;;;;;;;;;20.60;61.50;;;;;;10346234;28;91153;-44
2023/08/09 03:35:02;;;;;;;;;;;20.60;61.50;;;;;;10336515;28;89116;-46
2023/08/09 03:40:08;;;;;;;;;;;20.60;61.50;;;;;;10322553;28;91185;-52
2023/08/09 03:45:10;;;;;;;;;;;20.60;61.50;;;;;;10296172;28;91321;-44
2023/08/09 03:50:13;;;;;;;;;;;20.60;61.60;;;;;;10314245;28;95034;-43
2023/08/09 03:55:15;;;;;;;;;;;20.60;61.50;;;;;;10348408;28;89263;-46
2023/08/09 04:00:22;;;;;;;;;;;20.60;61.50;;;;;;10321171;28;89741;-44
2023/08/09 04:05:25;;;;;;;;;;;20.60;61.60;;;;;;10327067;28;92728;-44
2023/08/09 04:10:27;;;;;;;;;;;20.60;61.60;;;;;;10354669;28;89622;-45
2023/08/09 04:15:29;;;;;;;;;;;20.60;61.40;;;;;;10337378;28;89688;-43
2023/08/09 04:20:31;;;;;;;;;;;20.60;61.40;;;;;;10329077;28;89708;-46
2023/08/09 04:25:33;;;;;;;;;;;20.60;61.40;;;;;;10323054;28;90221;-47
2023/08/09 04:30:35;;;;;;;;;;;20.60;61.40;;;;;;10329303;28;90226;-42
2023/08/09 04:35:38;;;;;;;;;;;20.60;61.40;;;;;;10330730;28;91215;-43
2023/08/09 04:40:40;;;;;;;;;;;20.60;61.40;;;;;;10336479;27;91522;-44
2023/08/09 04:51:02;;;;;;;;;;;20.60;61.30;;;;;;10438932;22;89824;-61
2023/08/09 04:56:04;;;;;;;;;;;20.60;61.20;;;;;;10195176;28;89937;-62
2023/08/09 05:01:06;;;;;;;;;;;20.60;61.20;;;;;;10211686;28;89297;-61
2023/08/09 05:06:09;;;;;;;;;;;20.60;61.30;;;;;;10184962;28;90139;-62
2023/08/09 05:11:16;;;;;;;;;;;20.60;61.20;;;;;;10210633;28;90178;-61
2023/08/09 05:16:24;;;;;;;;;;;20.60;61.10;;;;;;10188095;28;89008;-61
2023/08/09 05:21:26;;;;;;;;;;;20.60;61.10;;;;;;10211761;28;89687;-65
2023/08/09 05:26:28;;;;;;;;;;;20.60;61.00;;;;;;10208790;28;90334;-65
2023/08/09 05:31:30;;;;;;;;;;;20.60;61.00;;;;;;10212548;28;90218;-65
2023/08/09 05:36:32;;;;;;;;;;;20.60;61.00;;;;;;10209682;28;89947;-64
2023/08/09 05:41:34;;;;;;;;;;;20.60;61.00;;;;;;10205021;28;88654;-64
2023/08/09 05:46:36;;;;;;;;;;;20.60;61.00;;;;;;10211608;28;89086;-61
2023/08/09 05:51:38;;;;;;;;;;;20.60;61.00;;;;;;10218073;28;90241;-62
2023/08/09 05:56:43;;;;;;;;;;;20.60;61.00;;;;;;10198767;28;90327;-61
2023/08/09 06:01:44;;;;;;;;;;;20.60;61.10;;;;;;10209190;28;89591;-61
2023/08/09 06:06:46;;;;;;;;;;;20.60;61.20;;;;;;10195734;28;89554;-61
2023/08/09 06:11:48;;;;;;;;;;;20.60;61.20;;;;;;10200867;28;89187;-61
2023/08/09 06:16:50;;;;;;;;;;;20.50;61.30;;;;;;10203764;28;89580;-61
2023/08/09 06:21:52;;;;;;;;;;;20.60;61.40;;;;;;10161372;28;89784;-61
2023/08/09 06:26:55;;;;;;;;;;;20.60;61.50;;;;;;10170894;28;90424;-65
2023/08/09 06:31:57;;;;;;;;;;;20.50;61.50;;;;;;10191645;28;90279;-61
2023/08/09 06:37:01;;;;;;;;;;;20.50;61.40;;;;;;10189282;28;90718;-65
2023/08/09 06:42:04;;;;;;;;;;;20.50;61.70;;;;;;10180309;28;89849;-65
2023/08/09 06:47:08;;;;;;;;;;;20.50;61.90;;;;;;10165180;28;89434;-64
2023/08/09 06:52:10;;;;;;;;;;;20.50;62.00;;;;;;10199795;28;89516;-64
2023/08/09 06:57:12;;;;;;;;;;;20.50;62.20;;;;;;10172482;28;89127;-65
2023/08/09 07:02:15;;;;;;;;;;;20.40;62.40;;;;;;10192754;28;89622;-65
2023/08/09 07:07:17;;;;;;;;;;;20.50;62.60;;;;;;10191683;28;89563;-66
2023/08/09 07:12:20;;;;;;;;;;;20.40;62.70;;;;;;10211504;28;89792;-65
2023/08/09 07:17:23;;;;;;;;;;;20.40;63.00;;;;;;10163449;28;89926;-61
2023/08/09 07:22:26;;;;;;;;;;;20.40;62.80;;;;;;10218302;28;89392;-61
2023/08/09 07:27:30;;;;;;;;;;;20.40;63.10;;;;;;10201816;28;88848;-62
2023/08/09 07:32:32;;;;;;;;;;;20.40;63.10;;;;;;10192054;28;90744;-61
2023/08/09 07:37:35;;;;;;;;;;;20.40;63.10;;;;;;10231632;28;88709;-62
2023/08/09 07:42:39;;;;;;;;;;;20.40;63.10;;;;;;10206260;28;90003;-61
2023/08/09 07:47:42;;;;;;;;;;;20.40;63.10;;;;;;10192362;28;88476;-61
2023/08/09 07:52:44;;;;;;;;;;;20.40;63.20;;;;;;10215233;28;89604;-61
2023/08/09 07:57:48;;;;;;;;;;;20.40;63.10;;;;;;10188078;28;89676;-61
2023/08/09 08:02:51;;;;;;;;;;;20.40;63.40;;;;;;10221420;28;92083;-61
2023/08/09 08:07:53;;;;;;;;;;;20.40;63.30;;;;;;10176177;28;91190;-61
2023/08/09 08:12:55;;;;;;;;;;;20.40;63.30;;;;;;10196385;28;90182;-61
2023/08/09 08:17:57;;;;;;;;;;;20.30;63.50;;;;;;10214707;28;89155;-62
2023/08/09 08:22:59;;;;;;;;;;;20.40;63.60;;;;;;10176220;28;89693;-61
2023/08/09 08:28:01;;;;;;;;;;;20.40;63.70;;;;;;10191084;28;88993;-62
2023/08/09 08:33:08;;;;;;;;;;;20.40;63.70;;;;;;10193809;28;89077;-61
2023/08/09 08:38:10;;;;;;;;;;;20.40;63.70;;;;;;10173153;28;89509;-62
2023/08/09 08:43:13;;;;;;;;;;;20.40;63.70;;;;;;10178692;28;89876;-62
2023/08/09 08:48:16;;;;;;;;;;;20.40;63.80;;;;;;10177631;28;89336;-61
2023/08/09 08:53:19;;;;;;;;;;;20.40;63.80;;;;;;10217768;28;91469;-61
2023/08/09 08:58:23;;;;;;;;;;;20.50;63.80;;;;;;10184215;28;90067;-61
2023/08/09 09:03:26;;;;;;;;;;;20.50;64.00;;;;;;10206947;28;89771;-61
2023/08/09 09:08:29;;;;;;;;;;;20.50;63.80;;;;;;10197047;28;89516;-61
2023/08/09 09:13:31;;;;;;;;;;;20.50;63.70;;;;;;10203667;28;89519;-61
2023/08/09 09:18:39;;;;;;;;;;;20.60;63.60;;;;;;10203083;28;89500;-61
2023/08/09 09:23:41;;;;;;;;;;;20.60;63.60;;;;;;10217325;28;90335;-61
2023/08/09 09:28:45;;;;;;;;;;;20.70;63.50;;;;;;10210629;28;89390;-59
2023/08/09 09:33:51;;;;;;;;;;;20.60;63.50;;;;;;10204231;28;89762;-63
2023/08/09 09:38:53;;;;;;;;;;;20.70;63.50;;;;;;10199023;28;89290;-61
2023/08/09 09:44:03;;;;;;;;;;;20.70;63.50;;;;;;10208610;28;90571;-61
2023/08/09 09:49:05;;;;;;;;;;;20.70;63.50;;;;;;10193750;28;89042;-61
2023/08/09 09:54:07;;;;;;;;;;;20.70;63.40;;;;;;10202129;28;89872;-62
2023/08/09 09:59:09;;;;;;;;;;;20.80;63.40;;;;;;10192916;28;89660;-61
2023/08/09 10:04:16;;;;;;;;;;;20.80;63.40;;;;;;10185729;28;89309;-62
2023/08/09 10:09:21;;;;;;;;;;;20.80;63.40;;;;;;10179036;28;90754;-62
2023/08/09 10:14:26;;;;;;;;;;;20.80;63.40;;;;;;10168468;28;89049;-62
2023/08/09 10:19:29;;;;;;;;;;;20.80;63.30;;;;;;10186872;28;90057;-62
2023/08/09 10:24:32;;;;;;;;;;;20.80;63.20;;;;;;10184927;28;90466;-62
2023/08/09 10:29:34;;;;;;;;;;;20.80;63.30;;;;;;10162378;28;90250;-61
2023/08/09 10:34:36;;;;;;;;;;;20.90;63.30;;;;;;10182283;28;90919;-61
2023/08/09 10:39:39;;;;;;;;;;;20.90;63.30;;;;;;10221584;28;90359;-62
2023/08/09 10:44:44;;;;;;;;;;;20.90;63.30;;;;;;10211735;28;109467;-61
2023/08/09 10:49:45;;;;;;;;;;;20.90;63.30;;;;;;10222398;28;90216;-66
2023/08/09 10:55:04;;;;;;;;;;;20.90;63.30;;;;;;10207685;28;89957;-61
2023/08/09 11:00:06;;;;;;;;;;;20.90;63.30;;;;;;10178544;28;89482;-61
2023/08/09 11:05:08;;;;;;;;;;;20.90;63.30;;;;;;10200406;28;90732;-62
2023/08/09 11:10:12;;;;;;;;;;;20.90;63.30;;;;;;10208966;28;89511;-61
2023/08/09 11:15:18;;;;;;;;;;;20.90;63.30;;;;;;10191039;28;90345;-62
2023/08/09 11:20:20;;;;;;;;;;;20.90;63.20;;;;;;10206602;28;89462;-62
2023/08/09 11:25:24;;;;;;;;;;;20.90;63.20;;;;;;10208141;28;90337;-62
2023/08/09 11:30:28;;;;;;;;;;;20.90;63.20;;;;;;10199456;28;89009;-61
2023/08/09 11:35:34;;;;;;;;;;;21.00;63.10;;;;;;10182463;28;89182;-61
2023/08/09 11:40:43;;;;;;;;;;;21.00;63.10;;;;;;10164419;28;89842;-61
2023/08/09 11:45:48;;;;;;;;;;;21.10;63.10;;;;;;10162842;28;90521;-61
2023/08/09 11:51:01;;;;;;;;;;;21.00;63.00;;;;;;10185592;28;89613;-62
2023/08/09 11:56:04;;;;;;;;;;;21.10;63.00;;;;;;10207565;28;88926;-61
2023/08/09 12:01:20;;;;;;;;;;;21.10;63.00;;;;;;10159689;28;89314;-62
2023/08/09 12:06:34;;;;;;;;;;;21.10;63.00;;;;;;10189233;28;90401;-64
2023/08/09 12:11:36;;;;;;;;;;;21.10;63.00;;;;;;10192706;28;90046;-61
2023/08/09 12:16:38;;;;;;;;;;;21.10;62.90;;;;;;10194768;28;90846;-62
2023/08/09 12:21:39;;;;;;;;;;;21.10;62.90;;;;;;10218123;28;90153;-62
2023/08/09 12:26:44;;;;;;;;;;;21.10;63.90;;;;;;10213743;28;89038;-62
2023/08/09 12:31:46;;;;;;;;;;;21.10;62.90;;;;;;10218296;28;91708;-62
2023/08/09 12:36:48;;;;;;;;;;;21.10;62.90;;;;;;10210833;28;90146;-62
2023/08/09 12:41:52;;;;;;;;;;;21.10;62.90;;;;;;10189667;28;89687;-61
2023/08/09 12:46:54;;;;;;;;;;;21.10;63.00;;;;;;10184814;28;91599;-61
2023/08/09 12:51:56;;;;;;;;;;;21.00;62.80;;;;;;10194809;28;88836;-61
2023/08/09 12:56:58;;;;;;;;;;;21.10;62.80;;;;;;10184645;28;89891;-60
2023/08/09 13:02:00;;;;;;;;;;;21.00;62.70;;;;;;10197625;28;89124;-62
2023/08/09 13:07:03;;;;;;;;;;;21.10;62.70;;;;;;10207318;28;89399;-62
2023/08/09 13:12:06;;;;;;;;;;;21.10;62.60;;;;;;10173215;28;90017;-61
2023/08/09 13:17:07;;;;;;;;;;;21.10;62.60;;;;;;10231672;28;90351;-62
2023/08/09 13:22:09;;;;;;;;;;;21.10;62.60;;;;;;10216716;28;89065;-62
2023/08/09 13:27:12;;;;;;;;;;;21.10;62.50;;;;;;10215171;28;88970;-62
2023/08/09 13:32:14;;;;;;;;;;;21.10;62.40;;;;;;10214284;28;89054;-61
2023/08/09 13:37:16;;;;;;;;;;;21.10;62.40;;;;;;10182677;28;89393;-61
2023/08/09 13:42:19;;;;;;;;;;;21.10;62.20;;;;;;10186526;28;89537;-61
2023/08/09 13:47:23;;;;;;;;;;;21.10;62.20;;;;;;10167697;28;89560;-62
2023/08/09 13:52:25;;;;;;;;;;;21.10;62.10;;;;;;10204223;28;90079;-62
2023/08/09 13:57:26;;;;;;;;;;;21.10;62.00;;;;;;10201535;28;89878;-61
2023/08/09 14:02:28;;;;;;;;;;;21.20;62.10;;;;;;10190535;28;90073;-62
2023/08/09 14:07:31;;;;;;;;;;;21.10;62.10;;;;;;10186064;28;89674;-64
2023/08/09 14:12:35;;;;;;;;;;;21.20;62.10;;;;;;10184884;28;90333;-62
2023/08/09 14:17:40;;;;;;;;;;;21.20;62.10;;;;;;10175166;28;90277;-62
2023/08/09 14:22:47;;;;;;;;;;;21.20;62.20;;;;;;10200685;28;88937;-63
2023/08/09 14:27:51;;;;;;;;;;;21.10;62.00;;;;;;10209150;28;89987;-63
2023/08/09 14:32:54;;;;;;;;;;;21.10;62.40;;;;;;10186007;28;89094;-61
2023/08/09 14:37:56;;;;;;;;;;;21.10;62.00;;;;;;10203903;28;89157;-62
2023/08/09 14:42:58;;;;;;;;;;;21.10;62.00;;;;;;10200892;28;90032;-62
2023/08/09 14:48:01;;;;;;;;;;;21.10;61.90;;;;;;10220052;28;90748;-62
2023/08/09 14:53:05;;;;;;;;;;;21.10;61.90;;;;;;10175140;28;89723;-62
2023/08/09 14:58:07;;;;;;;;;;;21.10;61.90;;;;;;10189762;28;88974;-62
2023/08/09 15:03:09;;;;;;;;;;;21.10;61.70;;;;;;10206355;28;90080;-61
2023/08/09 15:08:15;;;;;;;;;;;21.20;61.70;;;;;;10210676;28;89153;-62
2023/08/09 15:13:17;;;;;;;;;;;21.10;61.60;;;;;;10178284;28;89069;-62
2023/08/09 15:18:19;;;;;;;;;;;21.10;62.40;;;;;;10181168;28;90026;-62
2023/08/09 15:23:22;;;;;;;;;;;21.10;61.30;;;;;;10165101;28;90158;-62
2023/08/09 15:28:25;;;;;;;;;;;21.10;61.40;;;;;;10218636;28;89074;-62
2023/08/09 15:33:28;;;;;;;;;;;21.20;61.10;;;;;;10190285;28;90148;-62
2023/08/09 15:38:29;;;;;;;;;;;21.10;61.00;;;;;;10196612;28;89724;-62
2023/08/09 15:43:32;;;;;;;;;;;21.10;61.20;;;;;;10216833;28;89256;-63
2023/08/09 15:48:35;;;;;;;;;;;21.10;61.10;;;;;;10193105;28;90265;-62
2023/08/09 15:53:37;;;;;;;;;;;21.10;61.20;;;;;;10190092;28;89991;-62
2023/08/09 15:58:39;;;;;;;;;;;21.20;61.10;;;;;;10201012;28;89560;-62
2023/08/09 16:03:43;;;;;;;;;;;21.20;61.10;;;;;;10185881;28;90125;-61
2023/08/09 16:08:45;;;;;;;;;;;21.20;60.90;;;;;;10190241;28;89911;-62
2023/08/09 16:13:47;;;;;;;;;;;21.20;60.80;;;;;;10191222;28;88624;-62
2023/08/09 16:18:50;;;;;;;;;;;21.20;61.00;;;;;;10166148;28;89237;-62
2023/08/09 16:23:52;;;;;;;;;;;21.20;61.10;;;;;;10196028;28;89886;-62
2023/08/09 16:28:54;;;;;;;;;;;21.20;60.90;;;;;;10178445;28;90160;-62
2023/08/09 16:33:56;;;;;;;;;;;21.20;60.60;;;;;;10210463;28;90032;-62
2023/08/09 16:38:58;;;;;;;;;;;21.20;60.50;;;;;;10168042;28;90139;-62
2023/08/09 16:44:00;;;;;;;;;;;21.10;60.30;;;;;;10187042;28;89772;-61
2023/08/09 16:49:02;;;;;;;;;;;21.20;61.70;;;;;;10184440;28;89456;-62
2023/08/09 16:54:05;;;;;;;;;;;21.30;63.30;;;;;;10183238;28;89766;-63
2023/08/09 16:59:08;;;;;;;;;;;21.40;64.30;;;;;;10174358;28;89396;-60
2023/08/09 17:04:09;;;;;;;;;;;21.60;64.70;;;;;;10174934;28;89585;-62
2023/08/09 17:09:11;;;;;;;;;;;21.90;64.00;;;;;;10194169;28;90111;-62
2023/08/09 17:14:14;;;;;;;;;;;22.10;63.20;;;;;;10151695;28;89636;-63
2023/08/09 17:19:16;;;;;;;;;;;22.10;62.60;;;;;;10173155;28;92110;-62
2023/08/09 17:24:22;;;;;;;;;;;22.00;62.30;;;;;;10191496;28;88943;-63
2023/08/09 17:29:24;;;;;;;;;;;22.10;62.10;;;;;;10154575;28;90179;-62
2023/08/09 17:34:25;;;;;;;;;;;22.10;61.80;;;;;;10157141;28;89383;-63
2023/08/09 17:39:27;;;;;;;;;;;22.10;61.60;;;;;;10171483;28;89380;-63
2023/08/09 17:44:29;;;;;;;;;;;22.10;61.80;;;;;;10175271;28;89578;-62
2023/08/09 17:49:35;;;;;;;;;;;22.10;61.80;;;;;;10156449;28;90320;-62
2023/08/09 17:54:39;;;;;;;;;;;22.00;61.50;;;;;;10171306;28;89390;-62
2023/08/09 17:59:41;;;;;;;;;;;22.00;61.40;;;;;;10184277;28;91088;-62
2023/08/09 18:04:43;;;;;;;;;;;22.00;61.30;;;;;;10148239;28;90788;-62
2023/08/09 18:09:45;;;;;;;;;;;22.10;61.40;;;;;;10177658;28;90095;-61
2023/08/09 18:14:47;;;;;;;;;;;22.00;61.30;;;;;;10183762;28;90249;-66
2023/08/09 18:19:51;;;;;;;;;;;22.00;61.30;;;;;;10167001;28;90997;-66
2023/08/09 18:24:53;;;;;;;;;;;22.00;61.30;;;;;;10173665;28;90630;-66
2023/08/09 18:29:56;;;;;;;;;;;22.00;61.30;;;;;;10115964;22;91931;-46
2023/08/09 18:34:58;;;;;;;;;;;21.90;61.30;;;;;;10140908;28;95016;-50
2023/08/09 18:40:17;;;;;;;;;;;21.90;61.60;;;;;;10106106;28;90659;-49
2023/08/09 18:45:19;;;;;;;;;;;21.80;61.50;;;;;;10132373;28;91118;-45
2023/08/09 18:50:22;;;;;;;;;;;21.80;61.60;;;;;;10157099;28;89912;-48
2023/08/09 18:55:27;;;;;;;;;;;21.70;61.70;;;;;;10209451;23;91793;-52
2023/08/09 19:00:31;;;;;;;;;;;21.70;61.80;;;;;;10228208;28;90299;-50
2023/08/09 19:05:34;;;;;;;;;;;21.70;61.70;;;;;;10220631;28;90522;-50
2023/08/09 19:10:36;;;;;;;;;;;21.60;61.70;;;;;;10196726;28;90056;-47
2023/08/09 19:15:38;;;;;;;;;;;21.60;61.80;;;;;;10226622;28;89278;-47
2023/08/09 19:20:40;;;;;;;;;;;21.60;61.80;;;;;;10221493;28;92547;-48
2023/08/09 19:25:42;;;;;;;;;;;21.60;61.90;;;;;;10210953;28;89465;-49
2023/08/09 19:30:44;;;;;;;;;;;21.60;61.90;;;;;;10224449;28;90661;-49
2023/08/09 19:35:46;;;;;;;;;;;21.60;61.90;;;;;;10215319;28;90296;-51
2023/08/09 19:40:48;;;;;;;;;;;21.50;61.90;;;;;;10205667;28;89139;-46
2023/08/09 19:45:50;;;;;;;;;;;21.50;61.90;;;;;;10202842;28;89100;-51
2023/08/09 19:50:54;;;;;;;;;;;21.60;61.70;;;;;;10204727;28;92347;-54
2023/08/09 19:55:56;;;;;;;;;;;21.60;61.60;;;;;;10195210;28;90048;-47
2023/08/09 20:01:08;;;;;;;;;;;21.60;61.70;;;;;;10225446;28;90189;-47
2023/08/09 20:06:11;;;;;;;;;;;21.60;61.80;;;;;;10239548;28;89177;-47
2023/08/09 20:11:13;;;;;;;;;;;21.60;61.80;;;;;;10202150;28;89324;-50
2023/08/09 20:16:16;;;;;;;;;;;21.60;61.90;;;;;;10215070;28;89785;-49
2023/08/09 20:21:19;;;;;;;;;;;21.60;61.90;;;;;;10233384;28;89042;-50
2023/08/09 20:26:22;;;;;;;;;;;21.50;61.90;;;;;;10216853;28;90156;-48
2023/08/09 20:31:24;;;;;;;;;;;21.50;61.80;;;;;;10217524;28;89446;-50
2023/08/09 20:36:26;;;;;;;;;;;21.60;61.90;;;;;;10207056;28;91298;-47
2023/08/09 20:41:28;;;;;;;;;;;21.60;61.90;;;;;;10223680;28;90716;-51
2023/08/09 20:46:31;;;;;;;;;;;21.60;61.90;;;;;;10203386;28;90024;-49
2023/08/09 20:51:32;;;;;;;;;;;21.60;61.90;;;;;;10209793;28;89055;-51
2023/08/09 20:56:34;;;;;;;;;;;21.50;61.70;;;;;;10238993;28;90064;-50
2023/08/09 21:01:36;;;;;;;;;;;21.50;61.70;;;;;;10226709;28;89397;-51
2023/08/09 21:06:38;;;;;;;;;;;21.50;61.50;;;;;;10225495;28;91384;-49
2023/08/09 21:11:40;;;;;;;;;;;21.50;61.50;;;;;;10197948;28;89388;-52
2023/08/09 21:16:42;;;;;;;;;;;21.50;61.40;;;;;;10240644;28;88412;-50
2023/08/09 21:21:44;;;;;;;;;;;21.50;61.20;;;;;;10238226;28;93429;-51
2023/08/09 21:26:46;;;;;;;;;;;21.40;61.20;;;;;;10231418;28;89432;-45
2023/08/09 21:31:52;;;;;;;;;;;21.40;61.20;;;;;;10229431;28;90733;-49
2023/08/09 21:36:54;;;;;;;;;;;21.40;61.20;;;;;;10207429;28;89812;-46
2023/08/09 21:41:56;;;;;;;;;;;21.40;61.20;;;;;;10234547;28;88988;-48
2023/08/09 21:46:59;;;;;;;;;;;21.40;61.00;;;;;;10235073;28;90764;-46
2023/08/09 21:52:02;;;;;;;;;;;21.40;60.90;;;;;;10211000;28;90039;-50
2023/08/09 21:57:05;;;;;;;;;;;21.40;61.00;;;;;;10216856;28;89786;-53
2023/08/09 22:02:08;;;;;;;;;;;21.40;61.00;;;;;;10214972;28;89760;-48
2023/08/09 22:07:10;;;;;;;;;;;21.40;61.00;;;;;;10232632;28;89234;-47
2023/08/09 22:12:12;;;;;;;;;;;21.30;60.80;;;;;;10228475;28;89695;-49
2023/08/09 22:17:14;;;;;;;;;;;21.30;60.90;;;;;;10213321;28;91019;-48
2023/08/09 22:22:18;;;;;;;;;;;21.30;60.80;;;;;;10222390;28;90027;-48
2023/08/09 22:27:20;;;;;;;;;;;21.30;60.80;;;;;;10225548;28;89477;-47
2023/08/09 22:32:22;;;;;;;;;;;21.30;60.80;;;;;;10231532;28;90229;-46
2023/08/09 22:37:24;;;;;;;;;;;21.20;60.70;;;;;;10225842;28;90623;-47
2023/08/09 22:42:26;;;;;;;;;;;21.20;60.80;;;;;;10224292;28;89022;-51
2023/08/09 22:47:28;;;;;;;;;;;21.20;60.70;;;;;;10216216;28;89394;-47
2023/08/09 22:52:30;;;;;;;;;;;21.20;60.90;;;;;;10223582;28;89761;-49
2023/08/09 22:57:34;;;;;;;;;;;21.10;60.80;;;;;;10221421;28;89374;-53
2023/08/09 23:02:37;;;;;;;;;;;21.10;60.80;;;;;;10207380;28;89973;-48
2023/08/09 23:07:40;;;;;;;;;;;21.10;60.80;;;;;;10241973;28;89204;-50
2023/08/09 23:12:42;;;;;;;;;;;21.10;60.90;;;;;;10233063;28;89928;-51
2023/08/09 23:17:44;;;;;;;;;;;21.10;60.90;;;;;;10218792;28;89343;-51
2023/08/09 23:22:46;;;;;;;;;;;21.10;60.80;;;;;;10232335;28;89173;-50
2023/08/09 23:27:49;;;;;;;;;;;21.00;60.90;;;;;;10204076;28;89033;-50
2023/08/09 23:32:50;;;;;;;;;;;21.00;60.90;;;;;;10239473;28;90477;-48
2023/08/09 23:37:53;;;;;;;;;;;21.00;60.90;;;;;;10233804;28;91221;-47
2023/08/09 23:42:54;;;;;;;;;;;21.00;60.80;;;;;;10248729;28;89751;-48
2023/08/09 23:47:57;;;;;;;;;;;21.00;60.90;;;;;;10230997;28;88630;-50
2023/08/09 23:52:58;;;;;;;;;;;21.00;60.90;;;;;;10228450;28;89413;-46
2023/08/09 23:58:00;;;;;;;;;;;21.00;60.90;;;;;;10234144;28;89675;-47
